createdAt,value
2017-08-17T00:02:02.662Z,54.10
2017-08-17T00:04:30.136Z,54.10
2017-08-17T00:06:57.653Z,54.50
2017-08-17T00:09:25.134Z,55.00
2017-08-17T00:11:52.610Z,54.90
2017-08-17T00:14:20.124Z,55.50
2017-08-17T00:16:47.604Z,55.70
2017-08-17T00:19:15.845Z,56.20
2017-08-17T00:21:43.367Z,56.10
2017-08-17T00:24:10.895Z,56.20
2017-08-17T00:26:38.385Z,56.30
2017-08-17T00:29:06.529Z,55.90
2017-08-17T00:31:34.438Z,56.40
2017-08-17T00:34:02.452Z,56.60
2017-08-17T00:36:30.161Z,56.90
2017-08-17T00:38:57.644Z,57.50
2017-08-17T00:41:25.166Z,57.10
2017-08-17T00:43:52.682Z,57.40
2017-08-17T00:46:20.171Z,57.30
2017-08-17T00:48:48.429Z,57.70
2017-08-17T00:51:16.020Z,56.90
2017-08-17T00:53:44.266Z,57.00
2017-08-17T00:56:11.747Z,56.90
2017-08-17T00:58:40.013Z,57.80
2017-08-17T01:01:07.493Z,57.60
2017-08-17T01:03:35.087Z,57.20
2017-08-17T01:06:02.631Z,57.00
2017-08-17T01:08:30.618Z,57.20
2017-08-17T01:10:58.116Z,57.70
2017-08-17T01:13:25.621Z,57.20
2017-08-17T01:15:53.089Z,56.10
2017-08-17T01:18:20.560Z,56.70
2017-08-17T01:20:48.053Z,57.10
2017-08-17T01:23:15.531Z,56.60
2017-08-17T01:25:43.778Z,56.60
2017-08-17T01:28:11.293Z,56.00
2017-08-17T01:30:38.766Z,56.30
2017-08-17T01:33:06.239Z,56.00
2017-08-17T01:35:33.746Z,56.20
2017-08-17T01:38:02.001Z,55.80
2017-08-17T01:40:29.481Z,55.70
2017-08-17T01:42:57.745Z,56.40
2017-08-17T01:45:25.232Z,56.30
2017-08-17T01:47:52.723Z,56.80
2017-08-17T01:50:20.239Z,57.50
2017-08-17T01:52:48.487Z,57.80
2017-08-17T01:55:15.969Z,57.70
2017-08-17T01:57:44.242Z,58.20
2017-08-17T02:00:12.488Z,58.40
2017-08-17T02:02:39.980Z,58.40
2017-08-17T02:05:08.256Z,59.40
2017-08-17T02:07:36.502Z,59.00
2017-08-17T02:10:03.993Z,58.80
2017-08-17T02:12:32.274Z,58.20
2017-08-17T02:15:00.522Z,59.00
2017-08-17T02:17:28.004Z,58.80
2017-08-17T02:19:56.275Z,59.50
2017-08-17T02:22:24.542Z,59.50
2017-08-17T02:24:52.038Z,59.50
2017-08-17T02:27:19.545Z,59.20
2017-08-17T02:29:47.039Z,59.70
2017-08-17T02:32:15.278Z,58.90
2017-08-17T02:34:42.787Z,58.90
2017-08-17T02:37:10.262Z,58.90
2017-08-17T02:39:37.744Z,58.20
2017-08-17T02:42:05.241Z,57.80
2017-08-17T02:44:32.729Z,57.50
2017-08-17T02:47:00.225Z,57.90
2017-08-17T02:49:27.754Z,58.90
2017-08-17T02:51:55.255Z,59.50
2017-08-17T02:54:22.746Z,59.50
2017-08-17T02:56:51.022Z,58.50
2017-08-17T02:59:19.274Z,58.40
2017-08-17T03:01:46.754Z,57.90
2017-08-17T03:04:14.260Z,57.80
2017-08-17T03:06:41.750Z,58.30
2017-08-17T03:09:09.239Z,57.70
2017-08-17T03:11:37.514Z,59.00
2017-08-17T03:14:05.770Z,59.60
2017-08-17T03:16:33.251Z,59.50
2017-08-17T03:19:01.542Z,60.80
2017-08-17T03:21:29.043Z,60.60
2017-08-17T03:23:56.531Z,59.60
2017-08-17T03:26:24.034Z,58.40
2017-08-17T03:28:51.530Z,58.80
2017-08-17T03:31:19.023Z,59.30
2017-08-17T03:33:47.347Z,61.00
2017-08-17T03:36:14.849Z,60.80
2017-08-17T03:38:42.365Z,61.00
2017-08-17T03:41:09.881Z,61.10
2017-08-17T03:43:38.128Z,61.20
2017-08-17T03:46:05.617Z,61.10
2017-08-17T03:48:33.885Z,62.30
2017-08-17T03:51:01.432Z,62.20
2017-08-17T03:53:28.911Z,62.40
2017-08-17T03:55:57.200Z,62.70
2017-08-17T03:58:25.477Z,62.80
2017-08-17T04:00:53.713Z,63.00
2017-08-17T04:03:21.318Z,62.90
2017-08-17T04:05:49.572Z,62.80
2017-08-17T04:08:18.593Z,63.40
2017-08-17T04:10:46.857Z,63.40
2017-08-17T04:13:15.100Z,63.30
2017-08-17T04:15:42.587Z,63.20
2017-08-17T04:18:10.883Z,64.60
2017-08-17T04:20:38.374Z,63.80
2017-08-17T04:23:05.882Z,63.90
2017-08-17T04:25:33.387Z,63.60
2017-08-17T04:28:00.891Z,63.40
2017-08-17T04:30:28.395Z,63.20
2017-08-17T04:32:55.924Z,63.60
2017-08-17T04:35:24.178Z,63.40
2017-08-17T04:37:51.761Z,63.30
2017-08-17T04:40:20.059Z,63.10
2017-08-17T04:42:47.541Z,63.00
2017-08-17T04:45:15.027Z,63.20
2017-08-17T04:47:42.628Z,63.10
2017-08-17T04:50:10.866Z,63.60
2017-08-17T04:52:38.362Z,63.40
2017-08-17T04:55:07.543Z,63.30
2017-08-17T05:01:02.456Z,63.80
2017-08-17T05:03:29.934Z,63.80
2017-08-17T05:05:58.172Z,63.80
2017-08-17T05:08:25.684Z,63.80
2017-08-17T05:10:53.935Z,64.10
2017-08-17T05:13:21.409Z,64.00
2017-08-17T05:15:49.682Z,64.00
2017-08-17T05:18:17.931Z,64.50
2017-08-17T05:20:45.411Z,63.80
2017-08-17T05:23:13.699Z,63.60
2017-08-17T05:25:41.954Z,63.70
2017-08-17T05:28:09.438Z,63.60
2017-08-17T05:30:37.710Z,64.00
2017-08-17T05:33:05.959Z,63.30
2017-08-17T05:35:33.488Z,63.10
2017-08-17T05:38:00.980Z,62.80
2017-08-17T05:40:28.461Z,62.50
2017-08-17T05:42:55.951Z,62.80
2017-08-17T05:45:23.503Z,62.90
2017-08-17T05:47:50.985Z,63.10
2017-08-17T05:50:18.475Z,63.30
2017-08-17T05:52:45.969Z,62.90
2017-08-17T05:55:14.323Z,62.70
2017-08-17T05:57:41.815Z,62.60
2017-08-17T06:00:10.082Z,62.60
2017-08-17T06:02:38.491Z,62.70
2017-08-17T06:05:06.278Z,63.50
2017-08-17T06:07:34.132Z,62.10
2017-08-17T06:10:01.605Z,62.00
2017-08-17T06:12:29.082Z,62.20
2017-08-17T06:14:56.582Z,62.30
2017-08-17T06:17:24.073Z,61.80
2017-08-17T06:19:51.555Z,62.60
2017-08-17T06:22:19.067Z,62.30
2017-08-17T06:24:46.555Z,61.50
2017-08-17T06:27:14.198Z,62.20
2017-08-17T06:29:41.705Z,62.60
2017-08-17T06:32:09.169Z,61.70
2017-08-17T06:34:36.685Z,62.10
2017-08-17T06:37:04.379Z,59.50
2017-08-17T06:39:31.870Z,60.50
2017-08-17T06:42:00.116Z,60.70
2017-08-17T06:44:27.627Z,60.70
2017-08-17T06:46:55.468Z,60.30
2017-08-17T06:49:24.612Z,61.00
2017-08-17T06:51:52.922Z,60.90
2017-08-17T06:54:20.696Z,60.90
2017-08-17T06:56:48.726Z,60.80
2017-08-17T06:59:17.108Z,60.60
2017-08-17T07:01:44.854Z,60.50
2017-08-17T07:04:14.153Z,59.20
2017-08-17T07:06:42.508Z,58.80
2017-08-17T07:09:11.443Z,59.80
2017-08-17T07:11:39.538Z,59.60
2017-08-17T07:14:07.509Z,59.80
2017-08-17T07:16:35.309Z,59.70
2017-08-17T07:19:04.877Z,60.00
2017-08-17T07:21:32.871Z,59.30
2017-08-17T07:24:00.937Z,59.00
2017-08-17T07:26:29.688Z,57.90
2017-08-17T07:28:57.701Z,58.70
2017-08-17T07:31:28.079Z,58.90
2017-08-17T07:33:55.665Z,58.60
2017-08-17T07:36:24.161Z,59.20
2017-08-17T07:38:52.000Z,58.30
2017-08-17T07:41:20.031Z,58.00
2017-08-17T07:43:48.083Z,57.20
2017-08-17T07:46:16.220Z,57.90
2017-08-17T07:48:44.766Z,58.70
2017-08-17T07:51:12.786Z,58.20
2017-08-17T07:53:41.275Z,58.30
2017-08-17T07:56:09.651Z,58.80
2017-08-17T07:58:43.687Z,59.20
2017-08-17T08:01:11.720Z,58.80
2017-08-17T08:03:40.306Z,59.30
2017-08-17T08:06:08.493Z,57.50
2017-08-17T08:08:36.991Z,58.70
2017-08-17T08:11:05.061Z,59.00
2017-08-17T08:13:33.519Z,58.30
2017-08-17T08:16:01.544Z,56.10
2017-08-17T08:18:29.190Z,56.30
2017-08-17T08:20:56.925Z,57.40
2017-08-17T08:23:25.364Z,58.60
2017-08-17T08:25:53.023Z,57.80
2017-08-17T08:28:22.048Z,59.30
2017-08-17T08:30:52.074Z,59.20
2017-08-17T08:33:20.151Z,55.80
2017-08-17T08:35:48.187Z,57.20
2017-08-17T08:38:16.025Z,55.20
2017-08-17T08:40:44.776Z,57.70
2017-08-17T08:43:12.948Z,57.10
2017-08-17T08:45:42.455Z,56.90
2017-08-17T08:48:10.459Z,59.30
2017-08-17T08:50:38.331Z,57.80
2017-08-17T08:53:06.061Z,57.80
2017-08-17T08:55:35.481Z,59.50
2017-08-17T08:58:03.544Z,57.80
2017-08-17T09:00:31.867Z,57.10
2017-08-17T09:03:00.660Z,56.90
2017-08-17T09:05:29.188Z,56.10
2017-08-17T09:07:57.231Z,55.20
2017-08-17T09:10:25.460Z,55.70
2017-08-17T09:12:53.812Z,55.70
2017-08-17T09:15:22.201Z,55.80
2017-08-17T09:17:50.019Z,56.00
2017-08-17T09:20:18.850Z,56.60
2017-08-17T09:22:46.626Z,56.60
2017-08-17T09:25:14.586Z,58.00
2017-08-17T09:27:42.401Z,55.80
2017-08-17T09:30:09.982Z,55.40
2017-08-17T09:32:38.589Z,56.80
2017-08-17T09:35:06.727Z,56.70
2017-08-17T09:37:34.645Z,56.80
2017-08-17T09:40:02.715Z,57.10
2017-08-17T09:42:30.812Z,57.00
2017-08-17T09:44:58.790Z,55.50
2017-08-17T09:47:26.826Z,56.90
2017-08-17T09:49:54.493Z,56.30
2017-08-17T09:52:22.151Z,55.80
2017-08-17T09:54:50.229Z,55.30
2017-08-17T09:57:19.279Z,54.90
2017-08-17T09:59:47.790Z,52.50
2017-08-17T10:02:15.485Z,52.40
2017-08-17T10:04:43.652Z,49.70
2017-08-17T10:07:12.129Z,49.30
2017-08-17T10:09:40.306Z,49.60
2017-08-17T10:12:08.352Z,50.20
2017-08-17T10:14:37.492Z,49.10
2017-08-17T10:17:05.370Z,50.40
2017-08-17T10:19:33.095Z,48.90
2017-08-17T10:22:01.109Z,49.70
2017-08-17T10:24:28.992Z,49.40
2017-08-17T10:26:57.128Z,48.60
2017-08-17T10:29:24.818Z,49.70
2017-08-17T10:31:52.760Z,49.30
2017-08-17T10:34:21.541Z,50.70
2017-08-17T10:36:49.449Z,50.70
2017-08-17T10:39:17.574Z,50.60
2017-08-17T10:41:45.352Z,49.10
2017-08-17T10:44:14.144Z,48.90
2017-08-17T10:46:41.830Z,49.00
2017-08-17T10:49:10.138Z,49.20
2017-08-17T10:51:38.974Z,47.50
2017-08-17T10:54:07.966Z,47.40
2017-08-17T10:56:35.730Z,48.20
2017-08-17T10:59:03.940Z,48.60
2017-08-17T11:01:31.966Z,47.80
2017-08-17T11:04:00.154Z,49.20
2017-08-17T11:06:28.430Z,48.70
2017-08-17T11:08:56.451Z,47.80
2017-08-17T11:11:24.168Z,48.10
2017-08-17T11:13:52.052Z,47.80
2017-08-17T11:16:19.907Z,45.90
2017-08-17T11:18:47.959Z,45.00
2017-08-17T11:21:15.842Z,45.70
2017-08-17T11:23:44.019Z,47.70
2017-08-17T11:26:11.538Z,48.90
2017-08-17T11:28:39.793Z,50.10
2017-08-17T11:31:07.275Z,49.40
2017-08-17T11:33:35.554Z,49.20
2017-08-17T11:36:03.814Z,49.40
2017-08-17T11:38:31.304Z,49.40
2017-08-17T11:40:58.823Z,47.90
2017-08-17T11:43:26.308Z,47.80
2017-08-17T11:45:54.625Z,48.10
2017-08-17T11:48:22.128Z,48.10
2017-08-17T11:50:49.627Z,47.80
2017-08-17T11:53:17.147Z,45.90
2017-08-17T11:55:44.671Z,45.30
2017-08-17T11:58:12.153Z,46.10
2017-08-17T12:00:39.655Z,46.60
2017-08-17T12:03:07.161Z,48.10
2017-08-17T12:05:34.634Z,48.40
2017-08-17T12:08:02.123Z,47.60
2017-08-17T12:10:30.399Z,48.40
2017-08-17T12:12:58.650Z,49.00
2017-08-17T12:15:26.129Z,48.90
2017-08-17T12:17:54.407Z,48.70
2017-08-17T12:20:22.650Z,47.50
2017-08-17T12:22:50.129Z,47.40
2017-08-17T12:25:17.651Z,46.40
2017-08-17T12:27:45.137Z,46.70
2017-08-17T12:30:12.617Z,47.10
2017-08-17T12:32:40.898Z,48.90
2017-08-17T12:35:09.163Z,48.40
2017-08-17T12:37:36.651Z,48.30
2017-08-17T12:40:04.149Z,48.20
2017-08-17T12:42:31.617Z,48.60
2017-08-17T12:44:59.095Z,49.00
2017-08-17T12:47:26.602Z,47.80
2017-08-17T12:49:54.072Z,48.60
2017-08-17T12:52:21.557Z,47.40
2017-08-17T12:54:49.083Z,45.80
2017-08-17T12:57:16.647Z,47.00
2017-08-17T12:59:44.143Z,47.40
2017-08-17T13:02:11.647Z,48.10
2017-08-17T13:04:39.143Z,48.70
2017-08-17T13:07:06.617Z,48.20
2017-08-17T13:09:34.146Z,47.60
2017-08-17T13:12:01.623Z,45.30
2017-08-17T13:14:29.858Z,45.10
2017-08-17T13:16:57.396Z,44.30
2017-08-17T13:19:25.686Z,46.60
2017-08-17T13:21:53.182Z,46.50
2017-08-17T13:24:20.733Z,44.50
2017-08-17T13:26:48.219Z,44.40
2017-08-17T13:29:15.720Z,45.40
2017-08-17T13:31:44.001Z,45.40
2017-08-17T13:34:12.246Z,44.10
2017-08-17T13:36:39.731Z,44.10
2017-08-17T13:39:07.997Z,44.60
2017-08-17T13:41:36.258Z,46.00
2017-08-17T13:44:03.749Z,46.10
2017-08-17T13:46:31.279Z,42.40
2017-08-17T13:48:58.762Z,42.60
2017-08-17T13:51:27.014Z,46.60
2017-08-17T13:53:54.559Z,46.50
2017-08-17T13:56:22.055Z,43.70
2017-08-17T13:58:50.351Z,45.30
2017-08-17T14:01:17.859Z,45.20
2017-08-17T14:03:45.350Z,42.80
2017-08-17T14:06:13.607Z,44.70
2017-08-17T14:08:41.107Z,44.60
2017-08-17T14:11:08.583Z,41.40
2017-08-17T14:13:36.091Z,40.70
2017-08-17T14:16:03.611Z,40.00
2017-08-17T14:18:31.092Z,40.10
2017-08-17T14:20:58.569Z,43.30
2017-08-17T14:23:26.078Z,42.90
2017-08-17T14:25:53.554Z,43.80
2017-08-17T14:28:21.035Z,43.10
2017-08-17T14:30:48.546Z,45.40
2017-08-17T14:33:16.027Z,45.90
2017-08-17T14:35:43.932Z,42.50
2017-08-17T14:38:11.448Z,44.00
2017-08-17T14:40:38.946Z,44.20
2017-08-17T14:43:06.432Z,45.20
2017-08-17T14:45:34.715Z,46.10
2017-08-17T14:48:02.207Z,46.10
2017-08-17T14:50:29.681Z,46.40
2017-08-17T14:52:57.194Z,42.90
2017-08-17T14:55:24.678Z,43.90
2017-08-17T14:57:52.153Z,42.60
2017-08-17T15:00:19.680Z,41.60
2017-08-17T15:02:47.175Z,43.70
2017-08-17T15:05:14.658Z,44.10
2017-08-17T15:07:42.172Z,44.60
2017-08-17T15:10:09.652Z,44.60
2017-08-17T15:12:37.129Z,44.20
2017-08-17T15:15:04.620Z,44.20
2017-08-17T15:17:32.881Z,45.00
2017-08-17T15:20:01.125Z,44.00
2017-08-17T15:22:28.626Z,43.80
2017-08-17T15:24:56.866Z,44.90
2017-08-17T15:27:24.354Z,44.90
2017-08-17T15:29:52.622Z,42.10
2017-08-17T15:32:20.102Z,42.00
2017-08-17T15:34:48.350Z,42.60
2017-08-17T15:37:15.933Z,42.60
2017-08-17T15:39:44.313Z,42.10
2017-08-17T15:42:12.607Z,41.80
2017-08-17T15:44:40.164Z,41.80
2017-08-17T15:47:07.649Z,42.30
2017-08-17T15:49:35.135Z,43.00
2017-08-17T15:52:02.769Z,43.20
2017-08-17T15:54:30.272Z,40.10
2017-08-17T15:56:57.841Z,41.80
2017-08-17T15:59:25.360Z,41.00
2017-08-17T16:01:53.850Z,42.10
2017-08-17T16:04:21.321Z,40.50
2017-08-17T16:06:48.814Z,39.10
2017-08-17T16:09:17.106Z,39.90
2017-08-17T16:11:44.688Z,39.90
2017-08-17T16:14:12.195Z,42.20
2017-08-17T16:16:39.681Z,42.70
2017-08-17T16:19:07.174Z,42.40
2017-08-17T16:21:34.826Z,41.40
2017-08-17T16:24:02.333Z,40.30
2017-08-17T16:26:29.869Z,40.00
2017-08-17T16:28:57.418Z,40.50
2017-08-17T16:31:24.956Z,40.00
2017-08-17T16:33:53.269Z,39.70
2017-08-17T16:36:20.964Z,39.60
2017-08-17T16:38:48.446Z,40.10
2017-08-17T16:41:15.963Z,41.00
2017-08-17T16:43:43.509Z,42.80
2017-08-17T16:46:11.002Z,42.40
2017-08-17T16:48:39.950Z,42.50
2017-08-17T16:51:08.680Z,42.40
2017-08-17T16:53:36.712Z,42.30
2017-08-17T16:56:05.457Z,43.10
2017-08-17T16:58:34.423Z,43.00
2017-08-17T17:01:02.044Z,43.00
2017-08-17T17:03:29.855Z,42.40
2017-08-17T17:05:58.559Z,41.50
2017-08-17T17:08:27.479Z,42.70
2017-08-17T17:10:56.013Z,43.20
2017-08-17T17:13:24.174Z,43.30
2017-08-17T17:15:52.015Z,42.90
2017-08-17T17:18:19.986Z,42.70
2017-08-17T17:20:47.623Z,42.60
2017-08-17T17:23:15.185Z,43.30
2017-08-17T17:25:42.690Z,43.60
2017-08-17T17:28:10.330Z,43.10
2017-08-17T17:30:37.824Z,44.10
2017-08-17T17:33:05.308Z,44.50
2017-08-17T17:35:33.626Z,43.70
2017-08-17T17:38:01.253Z,43.60
2017-08-17T17:40:29.509Z,45.20
2017-08-17T17:42:57.013Z,45.20
2017-08-17T17:45:24.497Z,45.90
2017-08-17T17:47:52.044Z,46.90
2017-08-17T17:50:19.637Z,47.50
2017-08-17T17:52:47.267Z,47.20
2017-08-17T17:55:15.134Z,45.80
2017-08-17T17:57:42.670Z,47.50
2017-08-17T18:00:10.374Z,47.40
2017-08-17T18:02:38.983Z,46.70
2017-08-17T18:05:06.801Z,46.70
2017-08-17T18:07:34.291Z,46.60
2017-08-17T18:10:01.774Z,47.00
2017-08-17T18:12:29.766Z,46.30
2017-08-17T18:14:58.161Z,46.20
2017-08-17T18:17:26.150Z,46.30
2017-08-17T18:19:53.942Z,45.90
2017-08-17T18:22:21.782Z,45.50
2017-08-17T18:24:49.840Z,45.30
2017-08-17T18:27:17.723Z,45.60
2017-08-17T18:29:47.453Z,46.10
2017-08-17T18:32:15.281Z,46.00
2017-08-17T18:34:44.194Z,45.70
2017-08-17T18:37:12.383Z,45.60
2017-08-17T18:39:40.302Z,45.90
2017-08-17T18:42:09.239Z,46.30
2017-08-17T18:44:38.063Z,46.30
2017-08-17T18:47:05.769Z,46.40
2017-08-17T18:49:33.759Z,47.00
2017-08-17T18:52:01.578Z,46.80
2017-08-17T18:54:29.594Z,46.40
2017-08-17T18:56:57.468Z,45.80
2017-08-17T18:59:26.593Z,45.10
2017-08-17T19:01:54.426Z,44.30
2017-08-17T19:04:22.273Z,44.80
2017-08-17T19:06:50.868Z,44.10
2017-08-17T19:09:19.237Z,44.00
2017-08-17T19:11:47.283Z,44.00
2017-08-17T19:14:15.184Z,43.90
2017-08-17T19:16:43.236Z,43.90
2017-08-17T19:19:12.779Z,44.70
2017-08-17T19:21:40.538Z,44.60
2017-08-17T19:24:08.180Z,45.20
2017-08-17T19:26:36.325Z,45.50
2017-08-17T19:29:03.968Z,45.50
2017-08-17T19:31:31.705Z,44.50
2017-08-17T19:34:00.109Z,45.10
2017-08-17T19:36:28.272Z,44.50
2017-08-17T19:38:56.208Z,44.30
2017-08-17T19:41:24.714Z,44.40
2017-08-17T19:43:52.377Z,44.90
2017-08-17T19:46:20.836Z,44.50
2017-08-17T19:48:48.933Z,44.50
2017-08-17T19:51:16.701Z,45.40
2017-08-17T19:53:44.902Z,45.10
2017-08-17T19:56:12.436Z,44.40
2017-08-17T19:58:39.941Z,44.20
2017-08-17T20:01:07.478Z,44.50
2017-08-17T20:03:34.989Z,45.00
2017-08-17T20:06:02.479Z,44.60
2017-08-17T20:08:29.961Z,44.50
2017-08-17T20:10:57.505Z,44.50
2017-08-17T20:13:25.009Z,44.40
2017-08-17T20:15:53.281Z,44.60
2017-08-17T20:18:21.570Z,44.80
2017-08-17T20:20:49.829Z,45.90
2017-08-17T20:23:17.345Z,45.80
2017-08-17T20:25:44.886Z,45.80
2017-08-17T20:28:12.382Z,45.60
2017-08-17T20:30:40.939Z,45.50
2017-08-17T20:33:08.452Z,45.60
2017-08-17T20:35:35.941Z,46.50
2017-08-17T20:38:03.477Z,46.80
2017-08-17T20:40:30.995Z,47.60
2017-08-17T20:42:58.480Z,46.60
2017-08-17T20:45:25.962Z,46.00
2017-08-17T20:47:54.239Z,46.40
2017-08-17T20:50:22.481Z,47.00
2017-08-17T20:52:49.962Z,46.90
2017-08-17T20:55:17.482Z,47.50
2017-08-17T20:57:44.978Z,48.30
2017-08-17T21:00:12.466Z,47.20
2017-08-17T21:02:39.985Z,47.40
2017-08-17T21:05:07.472Z,48.00
2017-08-17T21:07:35.727Z,47.90
2017-08-17T21:10:03.216Z,47.80
2017-08-17T21:12:31.462Z,47.60
2017-08-17T21:14:58.950Z,47.50
2017-08-17T21:17:27.227Z,48.20
2017-08-17T21:19:55.803Z,48.30
2017-08-17T21:22:23.287Z,48.10
2017-08-17T21:24:51.672Z,48.70
2017-08-17T21:27:19.985Z,49.20
2017-08-17T21:29:47.551Z,49.20
2017-08-17T21:32:15.209Z,49.20
2017-08-17T21:34:42.690Z,49.20
2017-08-17T21:37:10.509Z,49.60
2017-08-17T21:39:38.020Z,49.80
2017-08-17T21:42:05.526Z,49.80
2017-08-17T21:44:33.474Z,50.30
2017-08-17T21:47:00.982Z,50.80
2017-08-17T21:49:28.466Z,51.20
2017-08-17T21:51:55.953Z,51.30
2017-08-17T21:54:23.463Z,51.80
2017-08-17T21:56:51.731Z,51.70
2017-08-17T21:59:19.217Z,51.60
2017-08-17T22:01:46.729Z,51.70
2017-08-17T22:04:14.210Z,52.30
2017-08-17T22:06:41.699Z,52.20
2017-08-17T22:09:09.208Z,51.60
2017-08-17T22:11:36.691Z,51.50
2017-08-17T22:14:04.172Z,51.70
2017-08-17T22:16:31.677Z,51.00
2017-08-17T22:18:59.157Z,51.10
2017-08-17T22:21:26.638Z,51.20
2017-08-17T22:23:54.146Z,51.20
2017-08-17T22:26:21.634Z,52.30
2017-08-17T22:28:49.130Z,51.00
2017-08-17T22:31:17.401Z,52.50
2017-08-17T22:33:44.894Z,52.70
2017-08-17T22:36:12.378Z,52.70
2017-08-17T22:38:39.872Z,52.20
2017-08-17T22:41:07.346Z,51.80
2017-08-17T22:43:35.589Z,52.30
2017-08-17T22:46:03.097Z,52.20
2017-08-17T22:48:31.355Z,53.50
2017-08-17T22:50:58.833Z,53.50
2017-08-17T22:53:27.100Z,52.60
2017-08-17T22:55:54.597Z,52.60
2017-08-17T22:58:22.082Z,53.50
2017-08-17T23:00:49.603Z,53.70
2017-08-17T23:03:17.086Z,54.10
2017-08-17T23:05:44.633Z,53.80
2017-08-17T23:08:12.149Z,54.00
2017-08-17T23:10:40.405Z,55.20
2017-08-17T23:13:07.899Z,54.50
2017-08-17T23:15:36.179Z,54.10
2017-08-17T23:18:04.423Z,54.30
2017-08-17T23:20:31.901Z,54.20
2017-08-17T23:23:00.162Z,53.70
2017-08-17T23:25:27.637Z,54.10
2017-08-17T23:27:55.888Z,54.30
2017-08-17T23:30:23.401Z,54.30
2017-08-17T23:32:50.890Z,54.50
2017-08-17T23:35:18.387Z,54.60
2017-08-17T23:37:46.661Z,55.00
2017-08-17T23:40:14.156Z,55.00
2017-08-17T23:42:41.629Z,55.20
2017-08-17T23:45:09.129Z,55.10
2017-08-17T23:47:36.600Z,55.20
2017-08-17T23:50:04.111Z,56.00
2017-08-17T23:52:31.605Z,55.60
2017-08-17T23:54:59.096Z,55.50
2017-08-17T23:57:26.582Z,55.60
2017-08-17T23:59:54.093Z,55.80
